createdAt,value
2019-04-16T00:02:42.868Z,57.60
2019-04-16T00:05:27.743Z,58.30
2019-04-16T00:08:01.730Z,58.50
2019-04-16T00:10:55.066Z,58.60
2019-04-16T00:13:39.315Z,58.80
2019-04-16T00:16:12.767Z,59.10
2019-04-16T00:18:56.353Z,59.70
2019-04-16T00:21:52.035Z,59.80
2019-04-16T00:24:29.216Z,59.70
2019-04-16T00:27:00.532Z,59.60
2019-04-16T00:29:33.061Z,59.60
2019-04-16T00:32:09.101Z,59.70
2019-04-16T00:34:44.493Z,59.80
2019-04-16T00:37:12.345Z,59.80
2019-04-16T00:39:43.103Z,60.00
2019-04-16T00:42:13.868Z,61.10
2019-04-16T00:44:44.594Z,60.90
2019-04-16T00:47:15.370Z,61.10
2019-04-16T00:49:46.176Z,61.20
2019-04-16T00:52:16.914Z,61.40
2019-04-16T00:54:47.669Z,62.20
2019-04-16T00:57:18.742Z,62.30
2019-04-16T00:59:49.543Z,62.30
2019-04-16T01:02:20.349Z,62.10
2019-04-16T01:04:51.126Z,62.00
2019-04-16T01:07:22.111Z,62.00
2019-04-16T01:09:52.918Z,62.10
2019-04-16T01:12:23.663Z,61.90
2019-04-16T01:14:58.851Z,61.60
2019-04-16T01:17:26.796Z,61.70
2019-04-16T01:19:57.563Z,62.40
2019-04-16T01:22:28.319Z,63.00
2019-04-16T01:24:59.274Z,63.20
2019-04-16T01:27:39.904Z,63.30
2019-04-16T01:30:12.462Z,63.80
2019-04-16T01:33:04.756Z,63.30
2019-04-16T01:35:51.615Z,64.20
2019-04-16T01:38:36.672Z,64.10
2019-04-16T01:41:10.254Z,63.90
2019-04-16T01:43:41.035Z,64.20
2019-04-16T01:46:11.762Z,64.50
2019-04-16T01:48:42.539Z,64.30
2019-04-16T01:51:15.411Z,63.90
2019-04-16T01:53:45.651Z,64.60
2019-04-16T01:56:16.447Z,65.10
2019-04-16T01:58:47.213Z,66.00
2019-04-16T02:01:18.020Z,65.50
2019-04-16T02:03:49.564Z,66.90
2019-04-16T02:06:20.582Z,65.30
2019-04-16T02:08:51.309Z,65.90
2019-04-16T02:11:22.136Z,66.70
2019-04-16T02:13:52.911Z,66.10
2019-04-16T02:16:25.178Z,66.30
2019-04-16T02:19:00.764Z,65.80
2019-04-16T02:21:28.441Z,66.10
2019-04-16T02:23:59.157Z,65.70
2019-04-16T02:26:29.893Z,65.60
2019-04-16T02:29:00.680Z,65.90
2019-04-16T02:31:31.437Z,66.20
2019-04-16T02:34:02.570Z,66.50
2019-04-16T02:36:33.451Z,66.50
2019-04-16T02:39:05.955Z,66.00
2019-04-16T02:41:36.722Z,66.30
2019-04-16T02:44:14.188Z,66.50
2019-04-16T02:46:39.849Z,66.80
2019-04-16T02:49:10.585Z,66.30
2019-04-16T02:51:55.937Z,66.20
2019-04-16T02:54:37.869Z,66.00
2019-04-16T02:57:25.925Z,66.10
2019-04-16T02:59:55.127Z,66.20
2019-04-16T03:02:54.547Z,66.10
2019-04-16T03:05:29.844Z,65.40
2019-04-16T03:08:01.466Z,65.50
2019-04-16T03:10:33.335Z,65.20
2019-04-16T03:13:04.092Z,65.20
2019-04-16T03:16:07.325Z,65.30
2019-04-16T03:18:46.943Z,65.50
2019-04-16T03:21:15.534Z,65.90
2019-04-16T03:23:46.280Z,65.50
2019-04-16T03:26:18.159Z,65.90
2019-04-16T03:28:48.983Z,66.10
2019-04-16T03:31:23.229Z,66.10
2019-04-16T03:33:52.707Z,66.60
2019-04-16T03:36:23.385Z,66.70
2019-04-16T03:38:54.141Z,66.50
2019-04-16T03:41:25.768Z,66.90
2019-04-16T03:43:56.618Z,67.10
2019-04-16T03:46:27.325Z,67.30
2019-04-16T03:48:58.075Z,67.50
2019-04-16T03:51:28.790Z,67.20
2019-04-16T03:53:59.518Z,67.70
2019-04-16T03:56:31.193Z,67.40
2019-04-16T03:59:02.021Z,67.30
2019-04-16T04:01:32.795Z,67.40
2019-04-16T04:04:03.614Z,67.40
2019-04-16T04:06:36.493Z,67.40
2019-04-16T04:09:07.416Z,67.70
2019-04-16T04:11:40.979Z,67.70
2019-04-16T04:14:10.761Z,67.90
2019-04-16T04:16:41.625Z,68.00
2019-04-16T04:19:15.387Z,68.00
2019-04-16T04:21:44.708Z,68.30
2019-04-16T04:24:15.543Z,68.40
2019-04-16T04:26:46.239Z,68.40
2019-04-16T04:29:17.006Z,68.00
2019-04-16T04:31:47.713Z,67.30
2019-04-16T04:34:18.578Z,66.80
2019-04-16T04:36:49.334Z,66.50
2019-04-16T04:39:20.208Z,66.10
2019-04-16T04:41:52.675Z,66.20
2019-04-16T04:44:23.425Z,66.30
2019-04-16T04:46:54.123Z,66.40
2019-04-16T04:49:29.984Z,66.50
2019-04-16T04:51:57.203Z,66.90
2019-04-16T04:54:27.929Z,67.10
2019-04-16T04:56:59.283Z,67.00
2019-04-16T04:59:30.911Z,67.10
2019-04-16T05:02:01.838Z,67.20
2019-04-16T05:04:54.699Z,67.20
2019-04-16T05:07:25.729Z,67.10
2019-04-16T05:09:57.792Z,67.20
2019-04-16T05:12:28.488Z,67.40
2019-04-16T05:14:59.275Z,67.20
2019-04-16T05:17:30.665Z,67.00
2019-04-16T05:20:01.435Z,66.40
2019-04-16T05:22:33.153Z,66.50
2019-04-16T05:25:04.518Z,66.30
2019-04-16T05:27:40.293Z,67.20
2019-04-16T05:30:07.850Z,66.10
2019-04-16T05:32:38.609Z,64.30
2019-04-16T05:35:10.468Z,64.40
2019-04-16T05:37:42.560Z,64.10
2019-04-16T05:40:13.582Z,63.80
2019-04-16T05:42:44.335Z,62.80
2019-04-16T05:45:15.259Z,62.50
2019-04-16T05:47:48.762Z,62.00
2019-04-16T05:50:18.334Z,62.20
2019-04-16T05:52:49.032Z,61.60
2019-04-16T05:55:34.180Z,61.30
2019-04-16T05:58:04.887Z,60.40
2019-04-16T06:00:41.747Z,59.90
2019-04-16T06:03:12.761Z,59.80
2019-04-16T06:05:43.588Z,59.40
2019-04-16T06:08:14.307Z,58.00
2019-04-16T06:10:49.761Z,56.60
2019-04-16T06:13:41.350Z,54.30
2019-04-16T06:16:34.553Z,51.90
2019-04-16T06:19:17.943Z,49.00
2019-04-16T06:22:06.653Z,47.00
2019-04-16T06:24:56.324Z,45.40
2019-04-16T06:27:34.032Z,43.40
2019-04-16T06:30:32.637Z,42.60
2019-04-16T06:33:12.674Z,42.10
2019-04-16T06:36:00.581Z,41.00
2019-04-16T06:38:44.434Z,39.40
2019-04-16T06:41:41.530Z,40.00
2019-04-16T06:44:10.093Z,41.30
2019-04-16T06:47:11.101Z,40.70
2019-04-16T06:50:12.331Z,41.40
2019-04-16T06:53:00.941Z,41.00
2019-04-16T06:55:50.631Z,38.90
2019-04-16T06:58:27.298Z,38.40
2019-04-16T07:01:14.898Z,37.10
2019-04-16T07:04:08.333Z,35.40
2019-04-16T07:06:57.013Z,36.90
2019-04-16T07:09:41.336Z,37.20
2019-04-16T07:12:17.928Z,35.40
2019-04-16T07:14:49.097Z,33.60
2019-04-16T07:17:19.953Z,36.10
2019-04-16T07:19:50.721Z,36.90
2019-04-16T07:22:22.185Z,36.90
2019-04-16T07:24:57.252Z,35.90
2019-04-16T07:27:38.702Z,38.40
2019-04-16T07:30:21.229Z,38.30
2019-04-16T07:33:06.009Z,36.90
2019-04-16T07:35:55.800Z,40.90
2019-04-16T07:38:44.231Z,39.20
2019-04-16T07:41:28.132Z,40.20
2019-04-16T07:44:15.080Z,39.60
2019-04-16T07:47:05.010Z,39.90
2019-04-16T07:49:42.348Z,39.70
2019-04-16T07:52:44.083Z,38.30
2019-04-16T07:55:39.934Z,39.00
2019-04-16T07:58:10.661Z,42.10
2019-04-16T08:00:41.597Z,40.20
2019-04-16T08:03:12.454Z,38.70
2019-04-16T08:05:43.242Z,36.80
2019-04-16T08:08:14.038Z,34.90
2019-04-16T08:10:44.772Z,33.00
2019-04-16T08:13:18.770Z,33.00
2019-04-16T08:15:49.535Z,33.20
2019-04-16T08:18:20.302Z,32.70
2019-04-16T08:21:01.235Z,34.00
2019-04-16T08:23:33.360Z,35.70
2019-04-16T08:26:23.177Z,39.40
2019-04-16T08:28:53.904Z,36.30
2019-04-16T08:31:27.223Z,37.10
2019-04-16T08:33:58.128Z,33.70
2019-04-16T08:36:28.950Z,35.20
2019-04-16T08:38:59.676Z,36.40
2019-04-16T08:41:30.466Z,37.40
2019-04-16T08:44:03.776Z,34.60
2019-04-16T08:46:33.522Z,35.90
2019-04-16T08:49:04.299Z,36.50
2019-04-16T08:51:37.741Z,39.30
2019-04-16T08:54:07.368Z,37.20
2019-04-16T08:56:38.104Z,37.10
2019-04-16T08:59:10.977Z,38.00
2019-04-16T09:01:41.297Z,33.90
2019-04-16T09:04:12.123Z,35.40
2019-04-16T09:06:46.316Z,34.30
2019-04-16T09:09:37.091Z,33.80
2019-04-16T09:12:09.678Z,32.70
2019-04-16T09:14:47.017Z,34.40
2019-04-16T09:17:40.238Z,31.80
2019-04-16T09:20:13.214Z,32.40
2019-04-16T09:22:49.105Z,34.50
2019-04-16T09:25:45.697Z,34.80
2019-04-16T09:28:25.620Z,35.10
2019-04-16T09:31:09.482Z,34.60
2019-04-16T09:33:52.214Z,32.90
2019-04-16T09:36:40.847Z,32.10
2019-04-16T09:39:28.743Z,32.10
2019-04-16T09:41:59.449Z,32.90
2019-04-16T09:44:32.486Z,35.60
2019-04-16T09:47:05.067Z,35.40
2019-04-16T09:49:37.608Z,34.30
2019-04-16T09:52:07.183Z,32.00
2019-04-16T09:54:37.955Z,34.80
2019-04-16T09:57:08.624Z,36.50
2019-04-16T09:59:44.728Z,32.40
2019-04-16T10:02:22.690Z,34.80
2019-04-16T10:04:53.387Z,32.60
2019-04-16T10:07:24.117Z,32.20
2019-04-16T10:09:55.339Z,35.30
2019-04-16T10:12:26.155Z,33.40
2019-04-16T10:14:56.925Z,34.90
2019-04-16T10:17:27.612Z,37.30
2019-04-16T10:19:58.358Z,36.40
2019-04-16T10:22:29.066Z,36.40
2019-04-16T10:25:07.951Z,37.00
2019-04-16T10:28:06.935Z,36.10
2019-04-16T10:30:52.060Z,35.40
2019-04-16T10:33:22.747Z,36.20
2019-04-16T10:35:53.467Z,35.40
2019-04-16T10:38:35.350Z,39.70
2019-04-16T10:41:09.924Z,35.30
2019-04-16T10:43:45.202Z,36.30
2019-04-16T10:46:22.840Z,35.30
2019-04-16T10:49:05.326Z,34.20
2019-04-16T10:52:04.463Z,35.20
2019-04-16T10:54:43.170Z,37.40
2019-04-16T10:57:48.699Z,40.30
2019-04-16T11:00:38.521Z,40.10
2019-04-16T11:03:37.068Z,38.30
2019-04-16T11:06:32.646Z,41.30
2019-04-16T11:09:04.891Z,42.80
2019-04-16T11:11:35.603Z,41.90
2019-04-16T11:14:06.380Z,43.00
2019-04-16T11:16:38.406Z,41.40
2019-04-16T11:19:09.379Z,41.10
2019-04-16T11:21:40.100Z,41.00
2019-04-16T11:24:10.975Z,39.40
2019-04-16T11:26:44.311Z,41.20
2019-04-16T11:29:14.103Z,40.80
2019-04-16T11:31:44.806Z,40.60
2019-04-16T11:34:15.584Z,40.90
2019-04-16T11:36:46.267Z,40.80
2019-04-16T11:39:17.052Z,39.10
2019-04-16T11:41:47.782Z,41.30
2019-04-16T11:44:18.695Z,40.30
2019-04-16T11:46:49.431Z,39.30
2019-04-16T11:49:21.306Z,37.50
2019-04-16T11:51:52.107Z,38.90
2019-04-16T11:54:22.921Z,38.10
2019-04-16T11:56:55.562Z,39.30
2019-04-16T11:59:26.010Z,36.50
2019-04-16T12:02:01.659Z,38.50
2019-04-16T12:04:55.833Z,38.30
2019-04-16T12:07:47.107Z,36.40
2019-04-16T12:10:35.693Z,36.50
2019-04-16T12:13:25.345Z,36.40
2019-04-16T12:16:05.137Z,35.80
2019-04-16T12:18:57.227Z,35.80
2019-04-16T12:21:45.784Z,33.90
2019-04-16T12:24:47.548Z,34.60
2019-04-16T12:27:35.930Z,33.40
2019-04-16T12:30:32.427Z,30.70
2019-04-16T12:33:21.295Z,30.70
2019-04-16T12:36:26.211Z,31.90
2019-04-16T12:39:19.968Z,32.10
2019-04-16T12:42:06.451Z,31.80
2019-04-16T12:44:48.276Z,32.60
2019-04-16T12:47:35.519Z,33.60
2019-04-16T12:50:34.833Z,33.10
2019-04-16T12:53:30.502Z,31.90
2019-04-16T12:56:22.960Z,29.50
2019-04-16T12:59:12.645Z,29.40
2019-04-16T13:01:54.155Z,31.10
2019-04-16T13:04:45.774Z,31.90
2019-04-16T13:07:25.934Z,32.10
2019-04-16T13:10:24.754Z,34.50
2019-04-16T13:13:13.186Z,35.70
2019-04-16T13:16:05.999Z,34.60
2019-04-16T13:19:02.595Z,35.70
2019-04-16T13:21:36.498Z,34.60
2019-04-16T13:24:17.587Z,35.40
2019-04-16T13:27:07.317Z,37.40
2019-04-16T13:29:38.033Z,36.50
2019-04-16T13:32:08.812Z,33.30
2019-04-16T13:34:39.576Z,36.00
2019-04-16T13:37:10.499Z,34.70
2019-04-16T13:39:59.404Z,32.50
2019-04-16T13:42:29.961Z,32.30
2019-04-16T13:45:27.231Z,32.70
2019-04-16T13:48:14.761Z,33.20
2019-04-16T13:50:41.977Z,32.90
2019-04-16T13:53:30.547Z,37.20
2019-04-16T13:56:21.841Z,36.10
2019-04-16T13:59:00.689Z,37.80
2019-04-16T14:01:34.843Z,38.40
2019-04-16T14:04:05.943Z,39.20
2019-04-16T14:06:36.817Z,40.90
2019-04-16T14:09:08.565Z,41.70
2019-04-16T14:11:39.303Z,43.50
2019-04-16T14:14:10.046Z,41.00
2019-04-16T14:16:43.538Z,42.00
2019-04-16T14:19:13.188Z,43.00
2019-04-16T14:21:43.903Z,41.80
2019-04-16T14:24:14.691Z,43.10
2019-04-16T14:26:45.540Z,40.30
2019-04-16T14:29:16.430Z,39.00
2019-04-16T14:31:48.942Z,38.30
2019-04-16T14:34:41.422Z,37.80
2019-04-16T14:37:12.716Z,40.10
2019-04-16T14:39:46.603Z,42.20
2019-04-16T14:42:19.137Z,41.10
2019-04-16T14:44:54.139Z,40.70
2019-04-16T14:47:24.853Z,41.50
2019-04-16T14:49:55.600Z,43.20
2019-04-16T14:52:26.495Z,43.00
2019-04-16T14:55:12.326Z,45.40
2019-04-16T14:58:03.367Z,45.90
2019-04-16T15:00:55.925Z,47.50
2019-04-16T15:04:00.653Z,45.60
2019-04-16T15:06:52.859Z,45.70
2019-04-16T15:09:36.332Z,45.10
2019-04-16T15:12:25.798Z,44.00
2019-04-16T15:15:02.791Z,44.50
2019-04-16T15:17:56.133Z,45.80
2019-04-16T15:20:51.654Z,46.00
2019-04-16T15:23:53.459Z,43.50
2019-04-16T15:26:52.392Z,44.10
2019-04-16T15:29:34.411Z,43.60
2019-04-16T15:32:23.620Z,44.60
2019-04-16T15:34:55.183Z,45.10
2019-04-16T15:37:50.650Z,44.00
2019-04-16T15:40:28.200Z,45.70
2019-04-16T15:43:27.031Z,44.60
2019-04-16T15:46:26.618Z,45.70
2019-04-16T15:49:08.266Z,45.40
2019-04-16T15:51:44.512Z,46.30
2019-04-16T15:54:37.615Z,46.10
2019-04-16T15:57:39.280Z,46.10
2019-04-16T16:00:22.422Z,46.60
2019-04-16T16:03:15.429Z,45.90
2019-04-16T16:05:54.105Z,45.80
2019-04-16T16:08:35.750Z,46.40
2019-04-16T16:11:08.567Z,47.30
2019-04-16T16:13:39.417Z,47.80
2019-04-16T16:16:13.906Z,47.00
2019-04-16T16:18:42.859Z,47.60
2019-04-16T16:21:13.696Z,49.00
2019-04-16T16:23:44.545Z,48.10
2019-04-16T16:26:15.380Z,48.20
2019-04-16T16:28:46.205Z,48.30
2019-04-16T16:31:17.013Z,48.90
2019-04-16T16:33:47.820Z,49.00
2019-04-16T16:36:18.604Z,49.20
2019-04-16T16:38:49.335Z,49.80
2019-04-16T16:41:20.042Z,49.90
2019-04-16T16:43:50.788Z,49.20
2019-04-16T16:46:39.788Z,48.70
2019-04-16T16:49:10.505Z,49.80
2019-04-16T16:52:09.470Z,51.40
2019-04-16T16:54:40.259Z,52.40
2019-04-16T16:57:13.781Z,54.10
2019-04-16T17:00:02.674Z,55.00
2019-04-16T17:02:41.160Z,56.00
2019-04-16T17:05:17.368Z,57.00
2019-04-16T17:07:50.672Z,58.30
2019-04-16T17:10:20.460Z,57.80
2019-04-16T17:12:51.237Z,58.00
2019-04-16T17:15:21.965Z,59.30
2019-04-16T17:17:52.838Z,59.80
2019-04-16T17:20:23.555Z,60.40
2019-04-16T17:22:54.317Z,60.10
2019-04-16T17:25:36.102Z,60.40
2019-04-16T17:27:57.463Z,61.10
2019-04-16T17:30:28.289Z,61.90
2019-04-16T17:32:59.041Z,61.60
2019-04-16T17:35:29.743Z,62.10
2019-04-16T17:38:02.752Z,62.20
2019-04-16T17:40:44.104Z,62.40
2019-04-16T17:43:20.335Z,62.80
2019-04-16T17:46:07.586Z,63.40
2019-04-16T17:48:51.155Z,62.80
2019-04-16T17:51:43.736Z,63.20
2019-04-16T17:54:36.419Z,63.50
2019-04-16T17:57:15.926Z,64.00
2019-04-16T18:00:05.890Z,63.60
2019-04-16T18:03:05.278Z,63.10
2019-04-16T18:05:53.092Z,63.40
2019-04-16T18:08:45.873Z,63.70
2019-04-16T18:11:41.076Z,63.70
2019-04-16T18:14:32.684Z,64.20
2019-04-16T18:17:15.286Z,64.80
2019-04-16T18:20:11.336Z,64.80
2019-04-16T18:22:58.817Z,65.30
2019-04-16T18:26:03.568Z,65.30
2019-04-16T18:28:38.598Z,66.10
2019-04-16T18:31:19.018Z,66.30
2019-04-16T18:34:20.888Z,66.30
2019-04-16T18:37:19.725Z,66.90
2019-04-16T18:39:56.404Z,67.90
2019-04-16T18:42:54.122Z,67.50
2019-04-16T18:45:46.624Z,67.80
2019-04-16T18:48:23.594Z,68.40
2019-04-16T18:50:54.447Z,68.40
2019-04-16T18:53:25.205Z,68.30
2019-04-16T18:55:55.956Z,68.10
2019-04-16T18:58:26.695Z,68.50
2019-04-16T19:01:00.893Z,68.40
2019-04-16T19:03:31.608Z,67.70
2019-04-16T19:06:02.439Z,67.40
2019-04-16T19:08:41.541Z,67.20
2019-04-16T19:11:06.079Z,67.10
2019-04-16T19:13:36.794Z,66.80
2019-04-16T19:16:07.541Z,66.80
2019-04-16T19:18:38.277Z,66.90
2019-04-16T19:21:09.341Z,67.40
2019-04-16T19:23:40.058Z,68.00
2019-04-16T19:26:10.805Z,68.30
2019-04-16T19:28:45.344Z,68.90
2019-04-16T19:31:14.107Z,68.60
2019-04-16T19:33:44.851Z,70.00
2019-04-16T19:36:15.580Z,69.70
2019-04-16T19:38:46.386Z,69.80
2019-04-16T19:41:17.083Z,70.50
2019-04-16T19:43:47.818Z,70.50
2019-04-16T19:46:18.503Z,70.40
2019-04-16T19:48:49.300Z,70.30
2019-04-16T19:51:20.091Z,70.40
2019-04-16T19:53:50.894Z,70.70
2019-04-16T19:56:21.633Z,70.50
2019-04-16T19:58:52.445Z,69.90
2019-04-16T20:01:23.222Z,70.30
2019-04-16T20:03:54.063Z,69.40
2019-04-16T20:06:26.123Z,70.20
2019-04-16T20:08:57.114Z,70.10
2019-04-16T20:11:27.795Z,70.20
2019-04-16T20:14:01.519Z,70.30
2019-04-16T20:16:31.063Z,70.30
2019-04-16T20:19:01.794Z,71.20
2019-04-16T20:21:32.522Z,71.30
2019-04-16T20:24:03.248Z,72.00
2019-04-16T20:26:33.993Z,71.30
2019-04-16T20:29:04.745Z,72.20
2019-04-16T20:31:35.448Z,72.60
2019-04-16T20:34:09.372Z,73.00
2019-04-16T20:36:38.819Z,73.10
2019-04-16T20:39:09.575Z,73.10
2019-04-16T20:41:40.281Z,74.00
2019-04-16T20:44:11.018Z,74.60
2019-04-16T20:46:41.733Z,75.70
2019-04-16T20:49:16.531Z,76.30
2019-04-16T20:51:44.947Z,77.90
2019-04-16T20:54:15.673Z,77.70
2019-04-16T20:56:46.519Z,79.70
2019-04-16T20:59:17.275Z,80.00
2019-04-16T21:01:47.962Z,82.00
2019-04-16T21:04:18.697Z,82.20
2019-04-16T21:06:49.425Z,82.00
2019-04-16T21:09:20.170Z,81.90
2019-04-16T21:11:52.671Z,82.90
2019-04-16T21:14:23.162Z,83.40
2019-04-16T21:16:54.526Z,84.10
2019-04-16T21:19:46.586Z,84.80
2019-04-16T21:22:17.917Z,85.40
2019-04-16T21:24:48.986Z,85.80
2019-04-16T21:27:19.701Z,85.80
2019-04-16T21:29:50.755Z,85.10
2019-04-16T21:32:39.348Z,85.30
2019-04-16T21:35:20.668Z,85.80
2019-04-16T21:38:09.058Z,86.10
2019-04-16T21:40:39.821Z,86.80
2019-04-16T21:43:10.559Z,86.90
2019-04-16T21:45:41.265Z,87.40
2019-04-16T21:48:12.566Z,88.30
2019-04-16T21:50:44.595Z,87.80
2019-04-16T21:53:15.783Z,88.00
2019-04-16T21:55:46.589Z,88.20
2019-04-16T21:58:17.753Z,88.50
2019-04-16T22:01:06.966Z,88.40
2019-04-16T22:03:41.878Z,88.20
2019-04-16T22:06:09.999Z,88.40
2019-04-16T22:08:40.765Z,88.30
2019-04-16T22:11:11.916Z,88.40
2019-04-16T22:13:43.439Z,89.10
2019-04-16T22:16:14.194Z,89.40
2019-04-16T22:18:44.895Z,89.30
2019-04-16T22:21:15.556Z,88.80
2019-04-16T22:23:50.151Z,89.40
2019-04-16T22:26:18.669Z,89.70
2019-04-16T22:28:49.375Z,90.90
2019-04-16T22:31:20.802Z,92.30
2019-04-16T22:33:52.468Z,93.20
2019-04-16T22:36:23.195Z,93.50
2019-04-16T22:38:59.912Z,93.40
2019-04-16T22:41:44.762Z,93.60
2019-04-16T22:44:40.604Z,93.80
2019-04-16T22:47:14.692Z,93.60
2019-04-16T22:49:45.407Z,95.40
2019-04-16T22:52:16.175Z,95.70
2019-04-16T22:54:52.067Z,96.50
2019-04-16T22:57:19.305Z,96.10
2019-04-16T22:59:49.992Z,97.00
2019-04-16T23:02:23.355Z,97.20
2019-04-16T23:04:54.795Z,96.90
2019-04-16T23:07:26.452Z,97.30
2019-04-16T23:09:57.736Z,97.40
2019-04-16T23:12:28.454Z,97.70
2019-04-16T23:14:59.134Z,98.20
2019-04-16T23:17:29.829Z,98.60
2019-04-16T23:20:00.575Z,99.30
2019-04-16T23:22:31.280Z,99.00
2019-04-16T23:25:01.998Z,99.40
2019-04-16T23:27:37.198Z,99.90
2019-04-16T23:30:05.369Z,99.90
2019-04-16T23:32:36.116Z,99.90
2019-04-16T23:35:10.776Z,99.90
2019-04-16T23:37:39.422Z,99.90
2019-04-16T23:40:10.783Z,99.90
2019-04-16T23:42:54.505Z,99.90
2019-04-16T23:45:50.067Z,99.90
2019-04-16T23:48:33.927Z,99.90
2019-04-16T23:51:18.126Z,99.90
2019-04-16T23:53:52.494Z,99.90
2019-04-16T23:56:35.762Z,99.90
2019-04-16T23:59:13.731Z,99.90
